Time;durP1;ratioP1;P1;durP2;ratioP2;P2;SDS_P1;SDS_P2;PMS_P1;PMS_P2;Temp;Humidity;BMP_temperature;BMP_pressure;BME280_temperature;BME280_humidity;BME280_pressure;Samples;Min_cycle;Max_cycle;Signal;HPM_P1;HPM_P2
2021/08/06 00:00:27;;;;;;;;;1.00;1.00;;;;;23.18;52.85;99865.41;5056131;28;45647;-57
2021/08/06 00:02:52;;;;;;;;;2.25;0.50;;;;;23.16;52.58;99862.06;5055870;28;45378;-55
2021/08/06 00:05:18;;;;;;;;;1.00;1.00;;;;;23.17;52.55;99877.81;5055773;28;45343;-50
2021/08/06 00:07:43;;;;;;;;;1.25;1.25;;;;;23.17;52.35;99867.22;5037850;28;45369;-47
2021/08/06 00:10:09;;;;;;;;;3.00;1.25;;;;;23.16;52.45;99872.63;5055987;28;45568;-49
2021/08/06 00:12:34;;;;;;;;;3.00;2.00;;;;;23.18;52.66;99886.56;5055472;28;45438;-46
2021/08/06 00:14:59;;;;;;;;;2.00;1.75;;;;;23.17;52.23;99877.81;5055532;28;45478;-58
2021/08/06 00:17:25;;;;;;;;;2.00;2.00;;;;;23.18;52.54;99878.63;5055929;28;45333;-46
2021/08/06 00:19:50;;;;;;;;;2.25;2.00;;;;;23.18;52.14;99881.28;5056271;28;45327;-54
2021/08/06 00:22:15;;;;;;;;;2.00;2.00;;;;;23.17;52.49;99876.94;5037405;28;46248;-50
2021/08/06 00:24:41;;;;;;;;;2.25;1.25;;;;;23.19;52.54;99879.47;5055525;28;45162;-50
2021/08/06 00:27:06;;;;;;;;;1.00;1.00;;;;;23.17;52.60;99880.44;5037507;28;45287;-48
2021/08/06 00:29:32;;;;;;;;;2.25;2.00;;;;;23.16;52.49;99868.19;5055813;28;45428;-50
2021/08/06 00:31:58;;;;;;;;;1.25;1.25;;;;;23.16;52.51;99884.06;5037130;28;48188;-50
2021/08/06 00:34:23;;;;;;;;;3.50;0.00;;;;;23.17;52.15;99877.81;5058589;28;45289;-46
2021/08/06 00:36:48;;;;;;;;;2.50;2.00;;;;;23.16;52.34;99876.13;5058888;28;45412;-52
2021/08/06 00:39:13;;;;;;;;;1.00;1.00;;;;;23.16;52.09;99878.75;5059065;28;45573;-51
2021/08/06 00:41:39;;;;;;;;;1.00;1.00;;;;;23.17;52.48;99884.88;5040532;28;47613;-50
2021/08/06 00:44:05;;;;;;;;;1.75;1.75;;;;;23.15;52.63;99885.00;5058665;28;45265;-55
2021/08/06 00:46:30;;;;;;;;;1.75;1.75;;;;;23.16;52.48;99878.75;5058732;28;45312;-63
2021/08/06 00:48:56;;;;;;;;;2.00;2.00;;;;;23.16;52.32;99877.91;5059283;28;45323;-52
2021/08/06 00:51:22;;;;;;;;;2.00;2.00;;;;;23.16;52.02;99876.13;5058707;28;45771;-55
2021/08/06 00:53:47;;;;;;;;;1.00;1.00;;;;;23.16;51.96;99883.19;5058591;28;45324;-52
2021/08/06 00:56:13;;;;;;;;;1.00;1.00;;;;;23.16;52.19;99877.91;5058622;28;45325;-52
2021/08/06 00:58:40;;;;;;;;;3.75;2.00;;;;;23.16;52.06;99877.91;5058679;28;45352;-55
2021/08/06 01:01:05;;;;;;;;;2.00;1.50;;;;;23.16;52.24;99873.47;5058395;28;45592;-49
2021/08/06 01:03:59;;;;;;;;;1.00;1.00;;;;;23.15;52.16;99882.38;5058620;28;45317;-57
2021/08/06 01:06:40;;;;;;;;;1.75;1.75;;;;;23.15;52.21;99890.31;5059027;28;45319;-58
2021/08/06 01:09:28;;;;;;;;;2.00;1.50;;;;;23.15;51.96;99885.00;5058455;28;45423;-60
2021/08/06 01:11:57;;;;;;;;;3.50;2.00;;;;;23.14;52.16;99885.16;5048777;28;45265;-61
2021/08/06 01:14:26;;;;;;;;;2.50;2.00;;;;;23.15;52.31;99874.44;5058299;28;45801;-60
2021/08/06 01:16:57;;;;;;;;;1.50;1.50;;;;;23.16;51.76;99883.19;5058204;28;45397;-61
2021/08/06 01:19:48;;;;;;;;;2.00;1.00;;;;;23.16;52.22;99883.19;5058605;28;45471;-62
2021/08/06 01:22:24;;;;;;;;;1.00;1.00;;;;;23.15;52.09;99877.09;5039857;28;45384;-52
2021/08/06 01:25:07;;;;;;;;;4.50;3.00;;;;;23.15;51.97;99876.25;5058138;28;45232;-50
2021/08/06 01:27:36;;;;;;;;;3.50;3.00;;;;;23.16;52.05;99881.41;5058376;28;45304;-47
2021/08/06 01:30:05;;;;;;;;;2.75;2.00;;;;;23.16;51.69;99878.75;5058440;28;45540;-52
2021/08/06 01:32:32;;;;;;;;;3.25;2.75;;;;;23.15;51.99;99886.84;5056801;28;46772;-46
2021/08/06 01:34:57;;;;;;;;;1.25;1.25;;;;;23.14;51.87;99885.97;5058224;28;45312;-53
2021/08/06 01:37:23;;;;;;;;;2.00;2.00;;;;;23.15;51.93;99890.31;5058119;28;45436;-52
2021/08/06 01:39:48;;;;;;;;;1.50;1.50;;;;;23.15;51.69;99886.84;5058204;28;45182;-55
2021/08/06 01:42:31;;;;;;;;;3.00;1.75;;;;;23.15;51.64;99889.47;5057776;28;46290;-51
2021/08/06 01:44:57;;;;;;;;;2.25;1.75;;;;;23.14;51.59;99882.50;5057789;28;45338;-49
2021/08/06 01:47:38;;;;;;;;;2.75;1.75;;;;;23.14;51.68;99871.94;5057793;28;45289;-47
2021/08/06 01:50:10;;;;;;;;;3.00;2.00;;;;;23.14;51.45;99875.41;5057827;28;45510;-49
2021/08/06 01:52:46;;;;;;;;;4.75;2.50;;;;;23.14;51.74;99875.41;5057447;28;46942;-50
2021/08/06 01:55:13;;;;;;;;;3.00;3.00;;;;;23.14;51.92;99885.97;5057605;28;45331;-47
2021/08/06 01:57:40;;;;;;;;;2.00;2.00;;;;;23.14;51.77;99878.03;5057762;28;45402;-52
2021/08/06 02:00:06;;;;;;;;;2.00;2.00;;;;;23.12;51.59;99885.25;5057691;28;45324;-47
2021/08/06 02:02:32;;;;;;;;;2.00;2.00;;;;;23.14;51.93;99869.28;5057452;28;47864;-48
2021/08/06 02:04:58;;;;;;;;;2.00;2.00;;;;;23.14;51.61;99872.75;5057843;28;45225;-47
2021/08/06 02:07:23;;;;;;;;;2.25;2.25;;;;;23.14;51.86;99875.41;5057600;28;45249;-45
2021/08/06 02:09:50;;;;;;;;;3.75;2.25;;;;;23.14;51.61;99877.22;5057665;28;45657;-55
2021/08/06 02:12:16;;;;;;;;;3.50;1.75;;;;;23.13;52.04;99881.66;5057186;28;45363;-60
2021/08/06 02:14:42;;;;;;;;;3.00;1.50;;;;;23.13;51.59;99879.00;5057320;28;45289;-56
2021/08/06 02:17:09;;;;;;;;;2.00;2.00;;;;;23.14;51.86;99880.69;5057384;28;45383;-52
2021/08/06 02:19:37;;;;;;;;;1.25;1.25;;;;;23.13;51.67;99876.38;5057423;28;45420;-46
2021/08/06 02:22:05;;;;;;;;;5.25;2.75;;;;;23.12;51.72;99887.91;5057058;28;46267;-48
2021/08/06 02:24:32;;;;;;;;;3.00;2.00;;;;;23.13;51.66;99897.50;5057412;28;45217;-54
2021/08/06 02:27:00;;;;;;;;;3.00;1.25;;;;;23.12;51.60;99895.81;5057591;28;45411;-47
2021/08/06 02:29:28;;;;;;;;;2.00;2.00;;;;;23.10;51.32;99892.47;5039339;28;45537;-45
2021/08/06 02:31:55;;;;;;;;;2.00;2.00;;;;;23.11;51.76;99899.44;5056855;28;46502;-47
2021/08/06 02:34:21;;;;;;;;;2.25;2.00;;;;;23.12;51.55;99897.66;5057030;28;45233;-47
2021/08/06 02:36:47;;;;;;;;;4.00;1.75;;;;;23.11;51.72;99902.06;5039080;28;45258;-45
2021/08/06 02:39:19;;;;;;;;;1.25;1.25;;;;;23.11;51.68;99901.25;5057249;28;45630;-53
2021/08/06 02:41:46;;;;;;;;;2.00;2.00;;;;;23.11;51.72;99903.88;5056823;28;46400;-53
2021/08/06 02:44:11;;;;;;;;;5.00;2.00;;;;;23.09;51.55;99906.66;5056850;28;45231;-60
2021/08/06 02:46:37;;;;;;;;;2.00;1.75;;;;;23.10;51.21;99900.38;5056971;28;45239;-55
2021/08/06 02:49:03;;;;;;;;;3.25;2.00;;;;;23.09;51.24;99904.03;5057278;28;45544;-53
2021/08/06 02:51:28;;;;;;;;;1.75;1.75;;;;;23.09;51.68;99904.03;5056938;28;45497;-47
2021/08/06 02:53:54;;;;;;;;;1.50;1.50;;;;;23.08;51.63;99907.63;5056753;28;45356;-62
2021/08/06 02:56:19;;;;;;;;;2.75;2.75;;;;;23.08;51.45;99910.28;5055952;28;45306;-58
2021/08/06 02:58:44;;;;;;;;;3.00;2.25;;;;;23.08;51.36;99907.63;5056884;28;45315;-58
2021/08/06 03:01:09;;;;;;;;;3.50;2.00;;;;;23.07;51.65;99916.53;5038449;28;46003;-63
2021/08/06 03:03:35;;;;;;;;;1.00;1.00;;;;;23.08;50.98;99920.00;5056602;28;45380;-60
2021/08/06 03:06:00;;;;;;;;;1.75;1.00;;;;;23.08;51.11;99914.69;5056515;28;49696;-60
2021/08/06 03:08:25;;;;;;;;;1.75;1.75;;;;;23.09;51.16;99919.88;5056759;28;45625;-62
2021/08/06 03:10:51;;;;;;;;;2.00;2.00;;;;;23.08;51.42;99917.34;5056287;28;47875;-52
2021/08/06 03:13:16;;;;;;;;;1.00;1.00;;;;;23.09;51.44;99919.03;5056572;28;45323;-51
2021/08/06 03:15:41;;;;;;;;;1.00;1.00;;;;;23.09;51.29;99919.88;5056369;28;45409;-49
2021/08/06 03:18:07;;;;;;;;;1.00;1.00;;;;;23.09;51.13;99924.31;5056586;28;45559;-48
2021/08/06 03:20:32;;;;;;;;;5.00;1.75;;;;;23.06;51.19;99920.13;5056510;28;45244;-55
2021/08/06 03:22:57;;;;;;;;;1.50;1.50;;;;;23.09;51.38;99927.81;5056261;28;45173;-59
2021/08/06 03:25:23;;;;;;;;;4.00;2.00;;;;;23.09;51.17;99927.81;5056502;28;45384;-47
2021/08/06 03:27:48;;;;;;;;;1.00;1.00;;;;;23.08;50.92;99923.50;5056547;28;45319;-47
2021/08/06 03:30:15;;;;;;;;;2.00;2.00;;;;;23.08;50.98;99923.50;5056105;28;46547;-55
2021/08/06 03:32:41;;;;;;;;;3.00;3.00;;;;;23.08;51.03;99926.13;5056204;28;45331;-47
2021/08/06 03:35:08;;;;;;;;;3.25;1.25;;;;;23.07;50.69;99929.75;5056308;28;45227;-53
2021/08/06 03:37:34;;;;;;;;;0.75;0.25;;;;;23.09;50.81;99933.09;5038550;28;45550;-56
2021/08/06 03:40:00;;;;;;;;;2.25;1.25;;;;;23.08;50.76;99931.41;5056053;28;46544;-51
2021/08/06 03:42:25;;;;;;;;;1.00;1.00;;;;;23.08;50.88;99942.00;5056173;28;45530;-46
2021/08/06 03:44:51;;;;;;;;;3.00;1.75;;;;;23.06;50.76;99935.97;5056172;28;45429;-46
2021/08/06 03:47:16;;;;;;;;;2.75;2.00;;;;;23.06;50.66;99930.69;5056275;28;45477;-51
2021/08/06 03:49:42;;;;;;;;;1.00;0.00;;;;;23.06;50.67;99927.19;5055909;28;46085;-51
2021/08/06 03:52:07;;;;;;;;;4.00;2.00;;;;;23.05;50.77;99929.00;5055792;28;45341;-49
2021/08/06 03:54:33;;;;;;;;;1.25;1.25;;;;;23.05;50.52;99933.44;5056424;28;45319;-49
2021/08/06 03:56:58;;;;;;;;;3.75;2.25;;;;;23.04;50.59;99932.63;5056249;28;45656;-48
2021/08/06 03:59:23;;;;;;;;;4.00;2.00;;;;;23.05;50.60;99934.31;5055735;28;46290;-52
2021/08/06 04:01:49;;;;;;;;;1.00;1.00;;;;;23.05;50.40;99939.59;5055784;28;45328;-51
2021/08/06 04:04:14;;;;;;;;;2.00;2.00;;;;;23.04;50.41;99945.00;5056017;28;45389;-45
2021/08/06 04:06:40;;;;;;;;;1.00;1.00;;;;;23.05;50.74;99950.16;5056562;28;46073;-51
2021/08/06 04:09:05;;;;;;;;;1.00;1.00;;;;;23.04;50.47;99948.47;5059503;28;46300;-52
2021/08/06 04:11:30;;;;;;;;;2.75;0.25;;;;;23.05;50.67;99959.88;5040903;28;55035;-50
2021/08/06 04:13:56;;;;;;;;;1.25;1.00;;;;;23.04;50.71;99953.75;5059392;28;45369;-47
2021/08/06 04:16:22;;;;;;;;;1.75;1.75;;;;;23.05;50.38;99959.88;5059283;28;45210;-49
2021/08/06 04:18:47;;;;;;;;;1.00;0.25;;;;;23.04;50.40;99966.97;5059095;28;45681;-48
2021/08/06 04:21:13;;;;;;;;;1.00;1.00;;;;;23.00;50.44;99969.03;5059016;28;45330;-47
2021/08/06 04:23:38;;;;;;;;;1.00;1.00;;;;;23.05;50.32;99971.31;5040990;28;45341;-45
2021/08/06 04:26:04;;;;;;;;;1.25;1.25;;;;;23.03;50.15;99967.94;5059433;28;45272;-55
2021/08/06 04:28:29;;;;;;;;;2.75;2.00;;;;;23.03;50.19;99970.56;5058892;28;45456;-50
2021/08/06 04:30:54;;;;;;;;;1.25;1.25;;;;;23.03;50.29;99967.94;5058683;28;45462;-50
2021/08/06 04:33:20;;;;;;;;;3.75;2.00;;;;;23.04;50.37;99966.97;5059030;28;45322;-47
2021/08/06 04:35:45;;;;;;;;;2.75;1.50;;;;;23.03;50.21;99972.41;5058901;28;45303;-52
2021/08/06 04:38:10;;;;;;;;;3.00;3.00;;;;;23.04;50.06;99979.38;5058636;28;46539;-46
2021/08/06 04:40:37;;;;;;;;;1.00;1.00;;;;;23.02;50.04;99984.75;5059075;28;45484;-51
2021/08/06 04:43:02;;;;;;;;;1.00;1.00;;;;;23.02;50.01;99984.75;5059083;28;45290;-49
2021/08/06 04:45:27;;;;;;;;;1.50;1.50;;;;;23.03;49.92;99986.44;5058864;28;45573;-52
2021/08/06 04:47:55;;;;;;;;;1.00;1.00;;;;;23.03;50.14;99993.53;5058294;28;53720;-45
2021/08/06 04:50:23;;;;;;;;;2.25;2.00;;;;;23.03;50.06;99997.00;5058570;28;45944;-45
2021/08/06 04:52:48;;;;;;;;;1.50;1.50;;;;;23.03;50.28;99997.00;5058650;28;45491;-52
2021/08/06 04:55:14;;;;;;;;;2.00;2.00;;;;;23.03;50.29;99999.66;5040630;28;45460;-54
2021/08/06 04:57:40;;;;;;;;;2.00;2.00;;;;;23.01;49.91;100001.56;5058580;28;46141;-45
2021/08/06 05:00:08;;;;;;;;;2.00;0.75;;;;;23.02;50.08;99995.31;5058805;28;45423;-52
2021/08/06 05:02:34;;;;;;;;;1.50;1.50;;;;;23.01;49.82;100001.56;5058675;28;45517;-60
2021/08/06 05:05:01;;;;;;;;;1.25;1.25;;;;;23.02;49.94;100008.53;5058699;28;45558;-57
2021/08/06 05:07:27;;;;;;;;;2.75;2.00;;;;;23.00;49.62;100000.75;5058220;28;46358;-51
2021/08/06 05:09:52;;;;;;;;;0.00;0.00;;;;;23.00;49.69;100003.38;5058197;28;45462;-56
2021/08/06 05:12:17;;;;;;;;;1.50;1.25;;;;;23.01;50.07;100006.84;5058328;28;45612;-49
2021/08/06 05:14:43;;;;;;;;;1.00;1.00;;;;;23.00;49.71;100011.31;5058422;28;45399;-58
2021/08/06 05:17:09;;;;;;;;;2.00;0.75;;;;;23.01;49.56;100018.28;5040225;28;47072;-49
2021/08/06 05:19:35;;;;;;;;;3.00;3.00;;;;;23.01;49.71;100007.72;5057510;28;45367;-49
2021/08/06 05:22:00;;;;;;;;;1.25;1.25;;;;;23.00;49.59;100010.44;5058334;28;45738;-52
2021/08/06 05:24:25;;;;;;;;;2.00;2.00;;;;;23.00;49.29;100016.59;5058408;28;45264;-52
2021/08/06 05:26:51;;;;;;;;;0.25;0.25;;;;;23.02;49.57;100016.47;5058140;28;46778;-52
2021/08/06 05:29:16;;;;;;;;;0.50;0.50;;;;;23.00;49.50;100013.09;5058131;28;45372;-49
2021/08/06 05:31:42;;;;;;;;;2.00;1.00;;;;;23.00;49.44;100016.59;5058010;28;45663;-47
2021/08/06 05:34:07;;;;;;;;;0.50;0.00;;;;;22.98;49.51;100007.13;5058495;28;45653;-55
2021/08/06 05:36:32;;;;;;;;;1.50;1.50;;;;;22.98;49.40;100002.66;5057810;28;46048;-48
2021/08/06 05:38:58;;;;;;;;;0.50;0.50;;;;;22.97;49.52;100000.16;5058083;28;45297;-49
2021/08/06 05:41:23;;;;;;;;;1.00;1.00;;;;;23.00;49.42;100008.66;5058020;28;45235;-48
2021/08/06 05:43:49;;;;;;;;;0.00;0.00;;;;;23.00;49.50;100007.81;5058068;28;45689;-49
2021/08/06 05:46:14;;;;;;;;;4.75;1.00;;;;;23.00;49.05;100007.81;5057726;28;45548;-47
2021/08/06 05:48:39;;;;;;;;;1.00;1.00;;;;;22.99;49.45;100006.13;5039792;28;45387;-51
2021/08/06 05:51:05;;;;;;;;;0.75;0.75;;;;;22.99;49.12;100011.41;5057648;28;45312;-49
2021/08/06 05:53:30;;;;;;;;;0.25;0.25;;;;;22.98;49.40;100001.81;5057981;28;45302;-49
2021/08/06 05:55:56;;;;;;;;;3.00;2.00;;;;;22.99;49.29;100014.06;5057416;28;46432;-51
2021/08/06 05:58:21;;;;;;;;;1.00;1.00;;;;;22.98;49.46;100023.78;5057553;28;45285;-45
2021/08/06 06:00:47;;;;;;;;;2.25;1.00;;;;;22.98;49.13;100020.31;5057823;28;45332;-45
2021/08/06 06:03:13;;;;;;;;;1.00;1.00;;;;;22.98;49.18;100018.50;5057947;28;45606;-53
2021/08/06 06:05:38;;;;;;;;;2.75;1.00;;;;;22.99;49.11;100024.63;5057682;28;45380;-59
2021/08/06 06:08:04;;;;;;;;;1.75;1.75;;;;;22.98;49.01;100012.41;5057363;28;45390;-56
2021/08/06 06:10:30;;;;;;;;;0.00;0.00;;;;;22.98;49.01;100018.50;5057467;28;45426;-60
2021/08/06 06:12:55;;;;;;;;;0.25;0.25;;;;;22.99;49.37;100011.41;5057576;28;45431;-60
2021/08/06 06:15:21;;;;;;;;;0.75;0.75;;;;;22.99;49.35;100020.19;5057065;28;45502;-52
2021/08/06 06:17:47;;;;;;;;;1.00;1.00;;;;;22.99;49.10;100014.91;5057232;28;45402;-46
2021/08/06 06:20:14;;;;;;;;;3.00;1.00;;;;;22.98;49.19;100007.13;5057650;28;45278;-48
2021/08/06 06:22:40;;;;;;;;;1.00;1.00;;;;;23.00;49.39;100034.22;5057883;28;45566;-45
2021/08/06 06:25:06;;;;;;;;;3.50;2.00;;;;;22.98;49.30;100036.19;5056953;28;45385;-58
2021/08/06 06:27:31;;;;;;;;;2.50;2.00;;;;;22.98;49.08;100026.44;5057018;28;45659;-51
2021/08/06 06:29:57;;;;;;;;;2.00;1.00;;;;;22.98;49.00;100036.19;5056600;28;45373;-59
2021/08/06 06:32:22;;;;;;;;;1.00;1.00;;;;;22.98;49.12;100029.09;5056741;28;45513;-51
2021/08/06 06:34:48;;;;;;;;;1.75;1.75;;;;;22.98;48.88;100028.25;5056911;28;45335;-45
2021/08/06 06:37:13;;;;;;;;;2.00;2.00;;;;;22.99;49.23;100028.13;5057233;28;45401;-45
2021/08/06 06:39:39;;;;;;;;;1.25;0.00;;;;;22.99;49.06;100029.91;5057049;28;45289;-59
2021/08/06 06:42:04;;;;;;;;;1.00;0.75;;;;;22.98;48.94;100029.09;5057140;28;45789;-62
2021/08/06 06:44:29;;;;;;;;;3.00;2.00;;;;;22.98;49.06;100034.38;5056866;28;46586;-57
2021/08/06 06:46:55;;;;;;;;;0.50;0.50;;;;;22.97;49.39;100043.25;5056815;28;45348;-63
2021/08/06 06:49:20;;;;;;;;;0.25;0.25;;;;;22.98;49.20;100038.81;5056880;28;45490;-63
2021/08/06 06:51:45;;;;;;;;;1.25;1.25;;;;;23.00;49.15;100050.94;5056983;28;45633;-59
2021/08/06 06:54:11;;;;;;;;;1.00;1.00;;;;;23.00;49.02;100058.03;5056984;28;45338;-48
2021/08/06 06:56:36;;;;;;;;;1.00;0.00;;;;;23.01;49.11;100046.50;5056737;28;45430;-50
2021/08/06 06:59:01;;;;;;;;;0.00;0.00;;;;;23.00;49.02;100055.38;5056778;28;45423;-52
2021/08/06 07:01:27;;;;;;;;;1.00;1.00;;;;;23.00;49.02;100053.59;5038766;28;45541;-49
2021/08/06 07:03:52;;;;;;;;;1.00;1.00;;;;;22.99;48.86;100049.25;5056428;28;45517;-52
2021/08/06 07:06:19;;;;;;;;;0.00;0.00;;;;;23.01;49.12;100049.13;5056520;28;45494;-45
2021/08/06 07:08:45;;;;;;;;;0.00;0.00;;;;;23.01;49.26;100051.78;5057081;28;45319;-45
2021/08/06 07:11:10;;;;;;;;;0.50;0.50;;;;;23.00;48.98;100058.88;5056728;28;45432;-45
2021/08/06 07:13:36;;;;;;;;;1.25;1.25;;;;;23.00;49.24;100063.31;5056526;28;46230;-48
2021/08/06 07:16:01;;;;;;;;;2.00;1.00;;;;;23.00;48.93;100052.72;5056059;28;45284;-57
2021/08/06 07:18:27;;;;;;;;;3.75;1.00;;;;;23.01;49.32;100049.13;5056044;28;45368;-48
2021/08/06 07:20:53;;;;;;;;;0.00;0.00;;;;;22.99;48.84;100054.56;5056699;28;45599;-52
2021/08/06 07:23:18;;;;;;;;;1.00;0.25;;;;;23.00;49.03;100069.44;5056188;28;45344;-58
2021/08/06 07:25:44;;;;;;;;;1.00;0.75;;;;;23.00;49.02;100058.03;5056565;28;45423;-56
2021/08/06 07:28:09;;;;;;;;;2.75;1.00;;;;;23.03;48.83;100075.47;5056374;28;45395;-46
2021/08/06 07:30:36;;;;;;;;;2.00;2.00;;;;;23.02;49.06;100074.59;5056470;28;45245;-47
2021/08/06 07:33:01;;;;;;;;;0.75;0.75;;;;;23.03;48.96;100072.81;5037946;28;47413;-52
2021/08/06 07:35:31;;;;;;;;;0.25;0.25;;;;;23.03;48.96;100078.09;5056070;28;45385;-50
2021/08/06 07:37:56;;;;;;;;;2.00;1.25;;;;;23.04;48.87;100071.88;5056331;28;45323;-48
2021/08/06 07:40:22;;;;;;;;;2.75;1.00;;;;;23.04;48.95;100070.03;5056375;28;45622;-54
2021/08/06 07:42:47;;;;;;;;;1.25;1.00;;;;;23.04;48.78;100077.16;5058237;28;45612;-48
2021/08/06 07:45:13;;;;;;;;;0.25;0.00;;;;;23.05;49.01;100086.72;5059728;28;45438;-45
2021/08/06 07:47:38;;;;;;;;;2.00;0.00;;;;;23.05;49.08;100082.31;5059704;28;45399;-54
2021/08/06 07:50:05;;;;;;;;;1.00;1.00;;;;;23.06;48.96;100083.13;5041834;28;45443;-56
2021/08/06 07:52:30;;;;;;;;;1.00;1.00;;;;;23.05;49.02;100086.72;5059490;28;45606;-54
2021/08/06 07:54:56;;;;;;;;;1.00;1.00;;;;;23.05;48.88;100092.88;5059482;28;45438;-54
2021/08/06 07:57:21;;;;;;;;;1.00;1.00;;;;;23.06;48.95;100089.28;5059486;28;45340;-53
2021/08/06 07:59:46;;;;;;;;;0.25;0.00;;;;;23.06;48.92;100091.91;5059888;28;45352;-55
2021/08/06 08:02:12;;;;;;;;;0.75;0.00;;;;;23.06;48.84;100098.97;5059273;28;45327;-50
2021/08/06 08:04:37;;;;;;;;;0.00;0.00;;;;;23.05;48.90;100092.88;5059287;28;45428;-56
2021/08/06 08:07:03;;;;;;;;;1.00;1.00;;;;;23.06;48.90;100101.63;5059501;28;45261;-50
2021/08/06 08:09:28;;;;;;;;;0.00;0.00;;;;;23.05;48.89;100100.81;5059661;28;45634;-50
2021/08/06 08:11:53;;;;;;;;;0.50;0.00;;;;;23.05;48.77;100116.66;5059139;28;46352;-55
2021/08/06 08:14:19;;;;;;;;;2.75;1.00;;;;;23.05;49.15;100108.72;5059534;28;45209;-55
2021/08/06 08:16:44;;;;;;;;;1.00;1.00;;;;;23.06;49.08;100110.41;5059371;28;45635;-48
2021/08/06 08:19:10;;;;;;;;;1.75;0.50;;;;;23.07;49.06;100112.09;5059429;28;45284;-48
2021/08/06 08:21:35;;;;;;;;;0.00;0.00;;;;;23.06;49.07;100105.13;5058862;28;46450;-52
2021/08/06 08:24:01;;;;;;;;;0.00;0.00;;;;;23.05;49.25;100108.72;5059111;28;45326;-46
2021/08/06 08:26:26;;;;;;;;;1.75;0.00;;;;;23.07;48.88;100112.09;5059163;28;45564;-53
2021/08/06 08:28:51;;;;;;;;;1.00;1.00;;;;;23.06;49.01;100098.97;5059250;28;45345;-52
2021/08/06 08:31:17;;;;;;;;;1.00;1.00;;;;;23.06;49.19;100115.69;5059019;28;46217;-60
2021/08/06 08:33:44;;;;;;;;;1.50;1.00;;;;;23.07;48.81;100106.81;5058896;28;45764;-63
2021/08/06 08:36:09;;;;;;;;;0.75;0.00;;;;;23.07;49.19;100106.81;5058967;28;45272;-62
2021/08/06 08:38:35;;;;;;;;;0.00;0.00;;;;;23.07;49.18;100105.97;5059331;28;45339;-60
2021/08/06 08:41:00;;;;;;;;;0.75;0.75;;;;;23.09;48.90;100106.69;5058794;28;46195;-62
2021/08/06 08:43:26;;;;;;;;;1.00;1.00;;;;;23.08;48.97;100105.84;5058817;28;45430;-47
2021/08/06 08:45:54;;;;;;;;;1.75;0.00;;;;;23.09;48.97;100109.31;5058885;28;45480;-52
2021/08/06 08:48:20;;;;;;;;;3.00;1.75;;;;;23.09;49.12;100106.69;5059082;28;45669;-46
2021/08/06 08:50:45;;;;;;;;;0.75;0.00;;;;;23.10;49.10;100114.47;5058502;28;46773;-52
2021/08/06 08:53:11;;;;;;;;;0.50;0.00;;;;;23.11;48.91;100108.25;5057842;28;45466;-45
2021/08/06 08:55:38;;;;;;;;;0.00;0.00;;;;;23.12;48.66;100119.66;5058421;28;45217;-49
2021/08/06 08:58:04;;;;;;;;;2.75;1.25;;;;;23.11;49.13;100112.69;5058941;28;45454;-50
2021/08/06 09:00:29;;;;;;;;;1.50;0.00;;;;;23.11;48.92;100118.81;5058246;28;46780;-46
2021/08/06 09:02:54;;;;;;;;;2.75;0.00;;;;;23.12;48.76;100117.84;5058452;28;45466;-47
2021/08/06 09:05:23;;;;;;;;;1.25;1.00;;;;;23.14;48.75;100117.75;5058979;28;45353;-52
2021/08/06 09:07:49;;;;;;;;;1.00;0.00;;;;;23.15;48.97;100125.56;5058995;28;45255;-63
2021/08/06 09:10:16;;;;;;;;;1.00;1.00;;;;;23.15;48.86;100124.72;5058220;28;47107;-63
2021/08/06 09:12:49;;;;;;;;;0.00;0.00;;;;;23.16;48.86;100131.66;5058154;28;45324;-49
2021/08/06 09:15:15;;;;;;;;;0.00;0.00;;;;;23.16;48.54;100131.66;5058251;28;45180;-48
2021/08/06 09:17:41;;;;;;;;;0.50;0.50;;;;;23.16;48.54;100127.25;5058634;28;45683;-46
2021/08/06 09:20:09;;;;;;;;;1.25;1.25;;;;;23.17;48.81;100138.63;5058142;28;45543;-48
2021/08/06 09:22:35;;;;;;;;;0.75;0.75;;;;;23.20;48.72;100134.97;5058091;28;45411;-49
2021/08/06 09:25:08;;;;;;;;;1.00;1.00;;;;;23.19;48.68;100127.97;5058330;28;45430;-52
2021/08/06 09:27:37;;;;;;;;;1.00;1.00;;;;;23.19;48.87;100130.59;5058356;28;45439;-47
2021/08/06 09:30:09;;;;;;;;;0.50;0.50;;;;;23.22;48.64;100146.25;5040359;28;46204;-48
2021/08/06 09:32:50;;;;;;;;;2.00;0.25;;;;;23.22;48.80;100138.31;5058010;28;45343;-46
2021/08/06 09:35:17;;;;;;;;;2.75;1.00;;;;;23.22;48.63;100146.25;5058177;28;45349;-50
2021/08/06 09:37:44;;;;;;;;;2.00;2.00;;;;;23.23;48.49;100142.63;5058203;28;45881;-46
2021/08/06 09:40:16;;;;;;;;;0.50;0.50;;;;;23.23;48.30;100151.44;5057754;28;46555;-50
2021/08/06 09:42:52;;;;;;;;;2.00;1.00;;;;;23.20;48.42;100149.03;5057906;28;45190;-46
2021/08/06 09:45:21;;;;;;;;;1.00;1.00;;;;;23.19;48.30;100142.03;5058030;28;45482;-46
2021/08/06 09:47:55;;;;;;;;;1.00;1.00;;;;;23.20;48.55;100143.72;5040035;28;45351;-45
2021/08/06 09:50:23;;;;;;;;;2.00;0.25;;;;;23.21;48.61;100149.84;5057964;28;46708;-49
2021/08/06 09:52:50;;;;;;;;;1.50;1.00;;;;;23.21;48.86;100152.50;5057737;28;45533;-46
2021/08/06 09:55:31;;;;;;;;;2.00;0.50;;;;;23.21;48.70;100147.19;5057926;28;45296;-47
2021/08/06 09:57:58;;;;;;;;;1.00;1.00;;;;;23.23;49.29;100146.16;5058001;28;45269;-48
2021/08/06 10:00:25;;;;;;;;;1.00;1.00;;;;;23.23;48.64;100147.94;5057754;28;46350;-59
2021/08/06 10:02:52;;;;;;;;;1.00;1.00;;;;;23.24;48.96;100139.03;5057805;28;45183;-55
2021/08/06 10:05:19;;;;;;;;;2.00;1.00;;;;;23.26;48.60;100152.97;5057420;28;45333;-47
2021/08/06 10:07:48;;;;;;;;;1.00;1.00;;;;;23.28;49.05;100140.50;5057819;28;45800;-55
2021/08/06 10:10:24;;;;;;;;;0.50;0.50;;;;;23.28;48.75;100140.50;5057408;28;46565;-51
2021/08/06 10:12:50;;;;;;;;;1.50;0.25;;;;;23.29;48.55;100143.00;5040387;28;45259;-60
2021/08/06 10:15:18;;;;;;;;;1.00;1.00;;;;;23.30;48.84;100142.03;5057259;28;45252;-57
2021/08/06 10:17:43;;;;;;;;;2.00;0.50;;;;;23.31;48.83;100146.38;5057491;28;45520;-46
2021/08/06 10:20:12;;;;;;;;;0.75;0.75;;;;;23.32;49.09;100157.78;5057229;28;45559;-58
2021/08/06 10:22:38;;;;;;;;;2.00;1.00;;;;;23.31;48.64;100140.25;5057228;28;45714;-53
2021/08/06 10:25:07;;;;;;;;;3.75;2.00;;;;;23.33;48.88;100148.88;5057407;28;45352;-52
2021/08/06 10:27:33;;;;;;;;;1.00;0.25;;;;;23.33;48.51;100148.88;5057607;28;45445;-61
2021/08/06 10:30:08;;;;;;;;;2.25;0.75;;;;;23.33;48.67;100154.19;5038928;28;46872;-56
2021/08/06 10:32:34;;;;;;;;;1.00;1.00;;;;;23.35;48.60;100157.53;5057038;28;45677;-47
2021/08/06 10:35:02;;;;;;;;;3.00;1.00;;;;;23.35;48.76;100152.25;5057314;28;45276;-53
2021/08/06 10:37:54;;;;;;;;;1.00;1.00;;;;;23.36;48.55;100155.75;5057281;28;45279;-60
2021/08/06 10:40:39;;;;;;;;;1.00;1.00;;;;;23.37;48.37;100155.63;5056984;28;45695;-47
2021/08/06 10:43:11;;;;;;;;;1.00;1.00;;;;;23.35;48.30;100162.84;5045901;28;45770;-57
2021/08/06 10:45:56;;;;;;;;;0.75;0.25;;;;;23.35;48.37;100146.97;5057058;28;45453;-50
2021/08/06 10:48:30;;;;;;;;;0.00;0.00;;;;;23.37;48.54;100155.63;5057051;28;45624;-52
2021/08/06 10:51:14;;;;;;;;;2.00;1.00;;;;;23.38;48.58;100157.31;5056912;28;47013;-46
2021/08/06 10:53:43;;;;;;;;;0.00;0.00;;;;;23.38;48.56;100149.38;5056870;28;45748;-47
2021/08/06 10:56:17;;;;;;;;;1.75;1.00;;;;;23.38;48.44;100152.03;5056950;28;45351;-56
2021/08/06 10:58:49;;;;;;;;;1.00;1.00;;;;;23.39;48.72;100152.84;5057122;28;45240;-54
2021/08/06 11:01:33;;;;;;;;;0.25;0.25;;;;;23.40;48.55;100162.47;5056449;28;47278;-52
2021/08/06 11:04:06;;;;;;;;;1.25;1.00;;;;;23.40;48.34;100151.91;5056842;28;45392;-51
2021/08/06 11:06:38;;;;;;;;;0.75;0.50;;;;;23.40;48.54;100149.25;5056777;28;45271;-47
2021/08/06 11:09:06;;;;;;;;;1.00;1.00;;;;;23.40;48.54;100152.75;5056772;28;45614;-59
2021/08/06 11:11:58;;;;;;;;;0.25;0.25;;;;;23.40;48.42;100147.47;5056306;28;45599;-56
2021/08/06 11:14:29;;;;;;;;;1.00;0.00;;;;;23.40;48.35;100160.69;5056756;28;45450;-50
2021/08/06 11:17:23;;;;;;;;;1.00;1.00;;;;;23.38;48.17;100162.59;5037690;28;45356;-58
2021/08/06 11:19:55;;;;;;;;;2.75;1.00;;;;;23.37;48.28;100158.28;5056804;28;45756;-56
2021/08/06 11:22:35;;;;;;;;;0.00;0.00;;;;;23.38;48.03;100159.09;5056454;28;46538;-58
2021/08/06 11:25:16;;;;;;;;;2.00;1.00;;;;;23.39;47.82;100158.16;5056291;28;45325;-56
2021/08/06 11:27:48;;;;;;;;;1.00;1.00;;;;;23.38;48.36;100161.75;5038388;28;45434;-51
2021/08/06 11:30:20;;;;;;;;;1.00;1.00;;;;;23.39;48.33;100161.66;5056810;28;45420;-46